Time;durP1;ratioP1;P1;durP2;ratioP2;P2;SDS_P1;SDS_P2;PMS_P1;PMS_P2;Temp;Humidity;BMP_temperature;BMP_pressure;BME280_temperature;BME280_humidity;BME280_pressure;Samples;Min_cycle;Max_cycle;Signal;HPM_P1;HPM_P2
2021/05/23 00:02:27;;;;;;;27.77;24.95;;;23.30;58.70;;;;;;3555389;40;20491;-50
2021/05/23 00:04:57;;;;;;;27.73;25.00;;;23.30;58.70;;;;;;3556935;40;20248;-51
2021/05/23 00:07:27;;;;;;;27.73;24.90;;;23.30;58.70;;;;;;3555830;40;20488;-51
2021/05/23 00:09:58;;;;;;;27.80;23.30;;;23.30;58.70;;;;;;3556993;40;20570;-49
2021/05/23 00:12:25;;;;;;;24.88;22.60;;;23.30;58.80;;;;;;3557914;40;20492;-51
2021/05/23 00:14:53;;;;;;;24.10;21.70;;;23.30;58.80;;;;;;3557659;40;20746;-49
2021/05/23 00:17:20;;;;;;;24.37;21.90;;;23.30;58.80;;;;;;3557930;40;20691;-50
2021/05/23 00:19:49;;;;;;;22.87;20.47;;;23.30;58.80;;;;;;3556217;40;20492;-50
2021/05/23 00:22:16;;;;;;;23.83;21.43;;;23.30;58.80;;;;;;3557443;40;20496;-50
2021/05/23 00:24:43;;;;;;;22.10;20.00;;;23.30;58.80;;;;;;3557161;40;20571;-50
2021/05/23 00:27:11;;;;;;;19.95;17.95;;;23.30;58.80;;;;;;3557244;40;20504;-50
2021/05/23 00:29:37;;;;;;;20.40;18.55;;;23.30;58.90;;;;;;3556487;40;20233;-50
2021/05/23 00:32:06;;;;;;;20.90;19.07;;;23.30;58.90;;;;;;3555677;40;20252;-51
2021/05/23 00:34:32;;;;;;;18.87;17.13;;;23.30;58.90;;;;;;3556263;40;20487;-50
2021/05/23 00:37:00;;;;;;;18.63;17.03;;;23.30;58.90;;;;;;3556763;40;20493;-50
2021/05/23 00:39:26;;;;;;;20.27;18.37;;;23.40;59.00;;;;;;3557070;40;20493;-51
2021/05/23 00:41:54;;;;;;;19.47;17.63;;;23.30;58.90;;;;;;3558590;40;20479;-50
2021/05/23 00:44:21;;;;;;;18.63;17.13;;;23.30;58.90;;;;;;3557450;40;20486;-50
2021/05/23 00:46:49;;;;;;;17.93;16.60;;;23.30;59.00;;;;;;3556087;40;20520;-50
2021/05/23 00:49:16;;;;;;;17.00;15.40;;;23.30;59.00;;;;;;3556711;40;20485;-49
2021/05/23 00:51:44;;;;;;;16.40;15.17;;;23.30;59.10;;;;;;3557258;40;20475;-51
2021/05/23 00:54:11;;;;;;;17.50;15.90;;;23.30;59.10;;;;;;3556866;40;20482;-49
2021/05/23 00:56:38;;;;;;;17.13;15.63;;;23.30;59.10;;;;;;3557169;40;20495;-50
2021/05/23 00:59:04;;;;;;;16.10;14.88;;;23.30;59.10;;;;;;3560524;40;20484;-49
2021/05/23 01:02:19;;;;;;;16.03;14.50;;;23.30;59.20;;;;;;3557116;40;20278;-49
2021/05/23 01:04:46;;;;;;;17.13;15.73;;;23.30;59.20;;;;;;3525609;40;20499;-49
2021/05/23 01:07:13;;;;;;;15.93;14.70;;;23.30;59.20;;;;;;3535556;40;20483;-50
2021/05/23 01:09:40;;;;;;;15.77;14.53;;;23.30;59.20;;;;;;3527604;40;20797;-49
2021/05/23 01:12:42;;;;;;;15.53;14.23;;;23.30;59.20;;;;;;3525594;40;20494;-50
2021/05/23 01:15:09;;;;;;;14.83;13.73;;;23.30;59.30;;;;;;3553185;40;20489;-49
2021/05/23 01:17:45;;;;;;;14.83;13.53;;;23.30;59.30;;;;;;3557345;40;20562;-50
2021/05/23 01:20:25;;;;;;;15.57;14.38;;;23.30;59.40;;;;;;3558326;40;20557;-50
2021/05/23 01:23:23;;;;;;;16.20;14.80;;;23.30;59.40;;;;;;3565295;40;20225;-50
2021/05/23 01:26:01;;;;;;;15.50;14.30;;;23.30;59.40;;;;;;3556745;40;20532;-50
2021/05/23 01:28:29;;;;;;;14.73;13.77;;;23.30;59.40;;;;;;3566828;40;20718;-50
2021/05/23 01:30:57;;;;;;;15.23;14.00;;;23.30;59.50;;;;;;3567138;40;20489;-49
2021/05/23 01:33:25;;;;;;;14.63;13.53;;;23.30;59.50;;;;;;3567331;40;20492;-51
2021/05/23 01:35:57;;;;;;;14.53;13.43;;;23.30;59.50;;;;;;3566465;40;20503;-49
2021/05/23 01:38:27;;;;;;;13.20;12.30;;;23.30;59.50;;;;;;3566019;40;20507;-50
2021/05/23 01:40:58;;;;;;;14.30;13.20;;;23.30;59.50;;;;;;3566916;40;20489;-50
2021/05/23 01:43:28;;;;;;;14.10;13.10;;;23.30;59.60;;;;;;3567464;40;20476;-50
2021/05/23 01:45:57;;;;;;;15.23;13.97;;;23.30;59.60;;;;;;3558133;40;20561;-50
2021/05/23 01:48:25;;;;;;;14.37;13.30;;;23.30;59.60;;;;;;3566704;40;21169;-49
2021/05/23 01:50:54;;;;;;;12.97;12.13;;;23.30;59.60;;;;;;3564153;40;20475;-49
2021/05/23 01:53:20;;;;;;;14.40;13.48;;;23.30;59.70;;;;;;3559888;40;20484;-49
2021/05/23 01:55:47;;;;;;;14.13;13.13;;;23.30;60.30;;;;;;3557496;40;20671;-51
2021/05/23 01:58:16;;;;;;;13.97;13.00;;;23.30;59.70;;;;;;3556990;40;20492;-49
2021/05/23 02:00:44;;;;;;;14.40;13.50;;;23.30;59.80;;;;;;3556859;40;20485;-50
2021/05/23 02:03:15;;;;;;;13.70;12.70;;;23.30;59.80;;;;;;3558138;40;20583;-49
2021/05/23 02:05:44;;;;;;;13.57;12.67;;;23.30;59.80;;;;;;3567429;40;20518;-49
2021/05/23 02:08:13;;;;;;;13.53;12.73;;;23.30;59.80;;;;;;3567466;40;20480;-50
2021/05/23 02:10:40;;;;;;;13.55;12.80;;;23.30;59.80;;;;;;3566662;40;20480;-49
2021/05/23 02:13:09;;;;;;;13.47;12.70;;;23.30;59.80;;;;;;3567037;40;20312;-49
2021/05/23 02:15:38;;;;;;;14.07;13.17;;;23.30;59.80;;;;;;3558305;40;20484;-50
2021/05/23 02:18:06;;;;;;;13.70;12.80;;;23.30;59.90;;;;;;3566789;40;20497;-50
2021/05/23 02:20:35;;;;;;;13.27;12.47;;;23.30;59.90;;;;;;3557890;40;20464;-51
2021/05/23 02:23:05;;;;;;;12.73;12.13;;;23.30;59.90;;;;;;3566351;40;20469;-51
2021/05/23 02:25:35;;;;;;;13.00;12.17;;;23.30;59.90;;;;;;3566427;40;20496;-49
2021/05/23 02:28:05;;;;;;;12.90;12.20;;;23.30;60.00;;;;;;3565380;40;20500;-50
2021/05/23 02:30:35;;;;;;;13.97;13.07;;;23.30;60.00;;;;;;3567444;40;20598;-49
2021/05/23 02:33:06;;;;;;;14.20;13.20;;;23.30;60.00;;;;;;3561124;40;20584;-49
2021/05/23 02:35:35;;;;;;;13.57;12.70;;;23.30;60.00;;;;;;3556823;40;21121;-49
2021/05/23 02:38:05;;;;;;;13.33;12.57;;;23.30;60.10;;;;;;3565618;40;20899;-49
2021/05/23 02:40:34;;;;;;;12.80;12.10;;;23.30;60.10;;;;;;3566444;40;20533;-49
2021/05/23 02:43:01;;;;;;;12.17;11.57;;;23.30;60.10;;;;;;3566897;40;20516;-51
2021/05/23 02:45:29;;;;;;;11.83;11.23;;;23.30;60.10;;;;;;3567363;40;20472;-49
2021/05/23 02:47:57;;;;;;;12.10;11.40;;;23.30;60.20;;;;;;3566718;40;20472;-50
2021/05/23 02:50:27;;;;;;;12.90;12.20;;;23.30;60.20;;;;;;3567429;40;20858;-50
2021/05/23 02:52:55;;;;;;;12.77;11.77;;;23.30;60.20;;;;;;3565660;40;20552;-50
2021/05/23 02:55:23;;;;;;;13.13;12.30;;;23.30;60.30;;;;;;3567438;40;20480;-49
2021/05/23 02:57:52;;;;;;;12.32;11.63;;;23.30;60.30;;;;;;3558046;40;20499;-50
2021/05/23 03:00:21;;;;;;;12.80;12.10;;;23.30;60.30;;;;;;3557068;40;20227;-50
2021/05/23 03:02:51;;;;;;;12.33;11.70;;;23.30;60.30;;;;;;3565424;40;20468;-50
2021/05/23 03:05:20;;;;;;;13.30;12.50;;;23.30;60.30;;;;;;3559367;40;20737;-49
2021/05/23 03:07:50;;;;;;;12.15;11.55;;;23.30;60.40;;;;;;3556516;40;20492;-52
2021/05/23 03:10:20;;;;;;;12.90;12.20;;;23.30;60.40;;;;;;3547463;40;20234;-51
2021/05/23 03:12:48;;;;;;;14.33;13.50;;;23.30;60.40;;;;;;3556727;40;20496;-50
2021/05/23 03:15:18;;;;;;;12.30;11.80;;;23.30;60.30;;;;;;3556329;40;20903;-50
2021/05/23 03:17:46;;;;;;;12.57;11.88;;;23.30;60.40;;;;;;3562648;40;20499;-50
2021/05/23 03:20:15;;;;;;;12.67;12.07;;;23.30;60.30;;;;;;3566706;40;20666;-50
2021/05/23 03:22:43;;;;;;;12.63;12.03;;;23.30;60.30;;;;;;3557682;40;20483;-51
2021/05/23 03:25:13;;;;;;;12.87;12.07;;;23.30;60.30;;;;;;3558617;40;20484;-49
2021/05/23 03:27:42;;;;;;;12.90;12.23;;;23.30;60.30;;;;;;3562440;40;20559;-50
2021/05/23 03:30:14;;;;;;;12.17;11.57;;;23.40;60.40;;;;;;3557775;40;20474;-50
2021/05/23 03:32:41;;;;;;;12.70;12.10;;;23.40;60.30;;;;;;3549349;40;20480;-50
2021/05/23 03:35:12;;;;;;;13.80;13.10;;;23.40;60.30;;;;;;3557554;40;20488;-53
2021/05/23 03:37:39;;;;;;;13.20;12.40;;;23.50;60.40;;;;;;3557440;40;20476;-50
2021/05/23 03:40:09;;;;;;;13.33;12.73;;;23.50;60.30;;;;;;3559983;40;20481;-50
2021/05/23 03:42:37;;;;;;;13.60;13.00;;;23.50;60.40;;;;;;3566089;40;20530;-50
2021/05/23 03:45:06;;;;;;;13.03;12.37;;;23.50;60.20;;;;;;3567826;40;20843;-50
2021/05/23 03:47:34;;;;;;;13.33;12.73;;;23.60;60.30;;;;;;3563478;40;20496;-50
2021/05/23 03:50:01;;;;;;;13.20;12.57;;;23.60;60.30;;;;;;3557910;40;20484;-50
2021/05/23 03:52:29;;;;;;;14.10;13.10;;;23.60;61.00;;;;;;3561391;40;20744;-49
2021/05/23 03:54:56;;;;;;;13.23;12.63;;;23.70;60.20;;;;;;3568404;40;20675;-50
2021/05/23 03:57:23;;;;;;;13.50;13.00;;;23.70;60.20;;;;;;3563434;40;20497;-50
2021/05/23 03:59:51;;;;;;;13.43;12.60;;;23.70;60.10;;;;;;3558515;40;20485;-50
2021/05/23 04:02:17;;;;;;;13.40;12.70;;;23.80;60.20;;;;;;3548885;40;20474;-49
2021/05/23 04:04:48;;;;;;;13.00;12.30;;;23.80;60.10;;;;;;3558253;40;20563;-50
2021/05/23 04:07:18;;;;;;;12.20;11.70;;;23.80;60.10;;;;;;3559437;40;20486;-52
2021/05/23 04:09:45;;;;;;;12.63;12.13;;;23.90;60.90;;;;;;3567933;40;20559;-49
2021/05/23 04:12:16;;;;;;;13.30;12.60;;;23.90;60.10;;;;;;3567345;40;20566;-50
2021/05/23 04:14:44;;;;;;;13.10;12.40;;;23.90;60.10;;;;;;3568236;40;20253;-49
2021/05/23 04:17:12;;;;;;;13.43;12.60;;;24.00;60.10;;;;;;3567137;40;20477;-51
2021/05/23 04:19:40;;;;;;;12.50;11.90;;;24.00;60.00;;;;;;3557085;40;20489;-50
2021/05/23 04:22:07;;;;;;;12.30;11.80;;;24.00;60.00;;;;;;3558603;40;20837;-50
2021/05/23 04:24:39;;;;;;;13.00;12.43;;;24.10;60.00;;;;;;3548036;40;20489;-51
2021/05/23 04:27:07;;;;;;;11.60;11.10;;;24.10;59.90;;;;;;3556890;40;20548;-50
2021/05/23 04:29:35;;;;;;;11.80;11.30;;;24.10;59.90;;;;;;3559136;40;20485;-52
2021/05/23 04:32:03;;;;;;;11.40;10.90;;;24.20;59.90;;;;;;3562517;40;20499;-52
2021/05/23 04:34:30;;;;;;;11.73;11.23;;;24.20;59.90;;;;;;3557542;40;20580;-50
2021/05/23 04:36:57;;;;;;;11.87;11.27;;;24.20;59.90;;;;;;3558052;40;20479;-51
2021/05/23 04:39:24;;;;;;;12.10;11.50;;;24.30;60.00;;;;;;3565405;40;20491;-49
2021/05/23 04:41:53;;;;;;;12.20;11.60;;;24.30;59.90;;;;;;3566446;40;20489;-50
2021/05/23 04:44:20;;;;;;;12.27;11.77;;;24.30;59.90;;;;;;3566984;40;20505;-50
2021/05/23 04:46:47;;;;;;;11.80;11.30;;;24.40;59.90;;;;;;3566999;40;20485;-53
2021/05/23 04:49:15;;;;;;;12.43;11.80;;;24.40;59.90;;;;;;3557586;40;21204;-52
2021/05/23 04:51:45;;;;;;;11.53;11.03;;;24.40;59.80;;;;;;3557425;40;20529;-51
2021/05/23 04:54:13;;;;;;;11.70;11.20;;;24.40;59.80;;;;;;3558050;40;20506;-49
2021/05/23 04:56:40;;;;;;;12.03;11.53;;;24.50;59.90;;;;;;3557587;40;20823;-49
2021/05/23 04:59:08;;;;;;;12.03;11.60;;;24.50;59.80;;;;;;3557613;40;20531;-53
2021/05/23 05:01:35;;;;;;;11.70;11.20;;;24.60;59.90;;;;;;3566163;40;20490;-51
2021/05/23 05:04:04;;;;;;;11.73;11.20;;;24.60;59.80;;;;;;3567288;40;20725;-49
2021/05/23 05:06:31;;;;;;;11.80;11.30;;;24.60;59.80;;;;;;3566557;40;20745;-49
2021/05/23 05:09:00;;;;;;;12.57;11.97;;;24.60;59.80;;;;;;3557572;40;20486;-50
2021/05/23 05:11:26;;;;;;;11.80;11.30;;;24.70;59.80;;;;;;3557951;40;20829;-50
2021/05/23 05:13:54;;;;;;;11.90;11.43;;;24.70;59.80;;;;;;3566385;40;20568;-50
2021/05/23 05:16:21;;;;;;;11.27;10.87;;;24.70;59.70;;;;;;3564880;40;20751;-51
2021/05/23 05:18:48;;;;;;;11.23;10.73;;;24.70;59.70;;;;;;3567109;40;20487;-52
2021/05/23 05:21:15;;;;;;;11.10;10.70;;;24.80;59.80;;;;;;3566276;40;20494;-49
2021/05/23 05:23:43;;;;;;;11.47;11.00;;;24.80;59.80;;;;;;3566218;40;20475;-50
2021/05/23 05:26:11;;;;;;;11.33;10.80;;;24.80;59.70;;;;;;3566995;40;20502;-50
2021/05/23 05:28:37;;;;;;;11.30;10.80;;;24.80;59.70;;;;;;3565949;40;20477;-51
2021/05/23 05:31:04;;;;;;;11.53;11.07;;;24.90;59.80;;;;;;3566800;40;20526;-49
2021/05/23 05:33:32;;;;;;;11.80;11.25;;;24.90;59.80;;;;;;3566003;40;20483;-52
2021/05/23 05:35:58;;;;;;;12.20;11.70;;;24.90;59.70;;;;;;3557018;40;20469;-52
2021/05/23 05:38:26;;;;;;;11.87;11.37;;;25.00;59.80;;;;;;3564896;40;20526;-50
2021/05/23 05:40:53;;;;;;;11.70;11.23;;;25.00;59.70;;;;;;3567226;40;20490;-53
2021/05/23 05:43:27;;;;;;;11.60;11.20;;;25.00;59.70;;;;;;3565926;40;20472;-50
2021/05/23 05:45:56;;;;;;;12.13;11.63;;;25.00;59.70;;;;;;3565057;40;20481;-51
2021/05/23 05:48:23;;;;;;;11.73;11.27;;;25.00;59.60;;;;;;3566676;40;20499;-50
2021/05/23 05:50:49;;;;;;;11.80;11.30;;;25.10;59.60;;;;;;3566510;40;20508;-50
2021/05/23 05:53:16;;;;;;;11.87;11.37;;;25.10;59.60;;;;;;3567447;40;20541;-49
2021/05/23 05:55:43;;;;;;;12.23;11.57;;;25.10;59.60;;;;;;3567359;40;20499;-50
2021/05/23 05:58:11;;;;;;;11.20;10.80;;;25.10;59.60;;;;;;3566212;40;20482;-49
2021/05/23 06:00:39;;;;;;;10.80;10.40;;;25.20;59.60;;;;;;3566860;40;20955;-51
2021/05/23 06:03:06;;;;;;;11.83;11.33;;;25.20;59.60;;;;;;3567402;40;20686;-50
2021/05/23 06:05:32;;;;;;;11.93;11.43;;;25.20;59.60;;;;;;3563955;40;20569;-50
2021/05/23 06:07:59;;;;;;;11.70;11.20;;;25.20;59.60;;;;;;3556794;40;20228;-51
2021/05/23 06:10:25;;;;;;;11.50;11.10;;;25.30;59.50;;;;;;3564893;40;20488;-50
2021/05/23 06:12:52;;;;;;;11.00;10.60;;;25.30;59.50;;;;;;3556459;40;20750;-50
2021/05/23 06:15:19;;;;;;;11.73;11.23;;;25.30;59.50;;;;;;3556641;40;20533;-52
2021/05/23 06:17:47;;;;;;;11.30;10.90;;;25.30;59.50;;;;;;3555749;40;20481;-50
2021/05/23 06:20:14;;;;;;;11.70;11.20;;;25.30;59.50;;;;;;3555846;40;20492;-50
2021/05/23 06:22:41;;;;;;;11.57;10.97;;;25.40;59.60;;;;;;3555279;40;20748;-50
2021/05/23 06:25:09;;;;;;;11.60;11.17;;;25.40;59.50;;;;;;3553422;40;20891;-50
2021/05/23 06:27:36;;;;;;;11.37;10.93;;;25.40;59.50;;;;;;3562918;40;20525;-52
2021/05/23 06:30:06;;;;;;;11.33;10.83;;;25.40;59.40;;;;;;3565165;40;20934;-50
2021/05/23 06:32:33;;;;;;;11.07;10.67;;;25.40;59.40;;;;;;3556033;40;20497;-50
2021/05/23 06:35:04;;;;;;;10.97;10.47;;;25.50;59.50;;;;;;3565382;40;20497;-49
2021/05/23 06:37:31;;;;;;;11.40;10.93;;;25.50;59.50;;;;;;3556215;40;20543;-51
2021/05/23 06:40:00;;;;;;;11.23;10.83;;;25.50;59.50;;;;;;3567342;40;20496;-50
2021/05/23 06:42:28;;;;;;;11.40;10.80;;;25.50;59.50;;;;;;3574257;40;20490;-52
2021/05/23 06:44:56;;;;;;;11.33;10.90;;;25.50;59.50;;;;;;3574019;40;20241;-50
2021/05/23 06:47:24;;;;;;;11.50;11.03;;;25.50;59.40;;;;;;3567769;40;20556;-51
2021/05/23 06:49:51;;;;;;;11.57;11.17;;;25.50;59.50;;;;;;3564619;40;20478;-50
2021/05/23 06:52:20;;;;;;;11.93;11.43;;;25.50;59.70;;;;;;3559105;40;20490;-50
2021/05/23 06:54:47;;;;;;;11.27;10.87;;;25.50;59.50;;;;;;3555995;40;20797;-51
2021/05/23 06:57:14;;;;;;;11.47;10.97;;;25.50;59.50;;;;;;3558337;40;21007;-50
2021/05/23 06:59:42;;;;;;;12.20;11.70;;;25.60;59.50;;;;;;3564566;40;20571;-51
2021/05/23 07:02:08;;;;;;;11.70;11.20;;;25.60;59.50;;;;;;3564338;40;20499;-50
2021/05/23 07:04:36;;;;;;;11.85;11.45;;;25.60;59.50;;;;;;3564629;40;20491;-50
2021/05/23 07:07:03;;;;;;;11.57;11.17;;;25.60;59.50;;;;;;3564772;40;20247;-51
2021/05/23 07:09:39;;;;;;;11.70;11.20;;;25.60;59.40;;;;;;3562978;40;20549;-50
2021/05/23 07:12:08;;;;;;;11.25;10.85;;;25.60;59.40;;;;;;3563153;40;20498;-50
2021/05/23 07:14:36;;;;;;;11.23;10.83;;;25.70;59.50;;;;;;3566162;40;20257;-51
2021/05/23 07:17:02;;;;;;;11.10;10.70;;;25.70;59.40;;;;;;3560938;40;20810;-51
2021/05/23 07:19:29;;;;;;;11.70;11.20;;;25.70;59.40;;;;;;3555117;40;20506;-50
2021/05/23 07:21:56;;;;;;;10.70;10.40;;;25.70;59.40;;;;;;3555600;40;20471;-49
2021/05/23 07:24:22;;;;;;;11.40;11.00;;;25.70;59.50;;;;;;3554530;40;20892;-50
2021/05/23 07:26:50;;;;;;;11.33;10.83;;;25.70;59.40;;;;;;3563658;40;21233;-51
2021/05/23 07:29:17;;;;;;;11.60;11.00;;;25.70;59.40;;;;;;3555007;40;20498;-51
2021/05/23 07:31:43;;;;;;;10.57;10.17;;;25.70;59.40;;;;;;3563538;40;20851;-50
2021/05/23 07:34:10;;;;;;;10.83;10.43;;;25.70;59.40;;;;;;3563793;40;20477;-50
2021/05/23 07:36:37;;;;;;;11.75;11.25;;;25.80;59.50;;;;;;3563185;40;20538;-51
2021/05/23 07:39:04;;;;;;;11.23;10.80;;;25.80;59.40;;;;;;3562522;40;20226;-50
2021/05/23 07:41:31;;;;;;;13.23;12.43;;;25.80;59.40;;;;;;3563314;40;20910;-51
2021/05/23 07:44:00;;;;;;;10.43;10.13;;;25.80;59.50;;;;;;3562974;40;20499;-50
2021/05/23 07:46:27;;;;;;;11.00;10.60;;;25.80;59.50;;;;;;3562937;40;20912;-51
2021/05/23 07:48:54;;;;;;;12.83;11.93;;;25.80;59.50;;;;;;3563900;40;20893;-51
2021/05/23 07:51:21;;;;;;;12.00;11.40;;;25.80;59.60;;;;;;3564374;40;20498;-52
2021/05/23 07:53:48;;;;;;;11.30;10.80;;;25.80;59.60;;;;;;3562893;40;20487;-51
2021/05/23 07:56:15;;;;;;;10.80;10.30;;;25.80;59.60;;;;;;3554799;40;20488;-51
2021/05/23 07:58:43;;;;;;;11.93;11.32;;;25.80;59.60;;;;;;3554504;40;20517;-51
2021/05/23 08:01:13;;;;;;;11.40;10.93;;;25.80;59.70;;;;;;3563724;40;20284;-51
2021/05/23 08:03:41;;;;;;;11.50;10.80;;;25.80;59.70;;;;;;3563785;40;20475;-50
2021/05/23 08:06:08;;;;;;;11.73;11.03;;;25.80;59.60;;;;;;3564055;40;20481;-51
2021/05/23 08:08:35;;;;;;;11.00;10.60;;;25.90;59.70;;;;;;3564799;40;20521;-50
2021/05/23 08:11:21;;;;;;;11.07;10.57;;;25.90;59.70;;;;;;3566105;40;20217;-51
2021/05/23 08:13:50;;;;;;;11.60;10.80;;;25.90;59.70;;;;;;3565485;40;20501;-52
2021/05/23 08:16:18;;;;;;;11.13;10.73;;;25.90;59.60;;;;;;3565391;40;21197;-51
2021/05/23 08:18:46;;;;;;;11.50;11.00;;;25.90;59.70;;;;;;3556527;40;20511;-50
2021/05/23 08:21:14;;;;;;;11.70;11.20;;;25.90;59.70;;;;;;3554932;40;20243;-52
2021/05/23 08:23:42;;;;;;;11.47;10.90;;;25.90;59.70;;;;;;3562187;40;20490;-50
2021/05/23 08:26:12;;;;;;;12.00;11.40;;;25.90;59.70;;;;;;3564644;40;20493;-51
2021/05/23 08:28:38;;;;;;;12.10;11.40;;;25.90;59.80;;;;;;3554324;40;20492;-50
2021/05/23 08:31:05;;;;;;;11.53;10.63;;;25.90;59.80;;;;;;3555009;40;20548;-50
2021/05/23 08:33:33;;;;;;;11.27;10.67;;;25.90;59.90;;;;;;3558327;40;21152;-50
2021/05/23 08:36:01;;;;;;;11.38;10.73;;;25.90;59.90;;;;;;3565244;40;20485;-51
2021/05/23 08:38:29;;;;;;;10.65;10.15;;;25.90;58.60;;;;;;3565359;40;20232;-51
2021/05/23 08:40:58;;;;;;;10.60;10.20;;;25.70;57.00;;;;;;3565549;40;20225;-51
2021/05/23 08:43:28;;;;;;;11.97;11.17;;;25.60;56.80;;;;;;3559211;40;20220;-50
2021/05/23 08:45:55;;;;;;;10.20;9.70;;;25.30;56.40;;;;;;3565480;40;20485;-51
2021/05/23 08:48:22;;;;;;;10.97;10.37;;;25.00;57.20;;;;;;3564943;40;20501;-51
2021/05/23 08:50:50;;;;;;;10.30;9.80;;;25.00;58.10;;;;;;3564683;40;20874;-52
2021/05/23 08:53:18;;;;;;;10.40;10.00;;;25.10;58.40;;;;;;3562581;40;20480;-51
2021/05/23 08:55:45;;;;;;;10.90;10.30;;;25.10;58.60;;;;;;3554037;40;20588;-50
2021/05/23 08:58:15;;;;;;;10.80;10.20;;;25.20;58.70;;;;;;3560789;40;20943;-50
2021/05/23 09:00:42;;;;;;;10.77;10.30;;;25.20;58.80;;;;;;3565316;40;20573;-51
2021/05/23 09:03:11;;;;;;;10.97;10.37;;;25.30;58.80;;;;;;3565566;40;20572;-51
2021/05/23 09:05:41;;;;;;;10.50;10.10;;;25.40;58.90;;;;;;3565240;40;20973;-50
2021/05/23 09:08:13;;;;;;;10.43;10.13;;;25.40;58.80;;;;;;3564262;40;20485;-50
2021/05/23 09:10:43;;;;;;;10.50;10.00;;;25.50;58.80;;;;;;3560030;40;20634;-51
2021/05/23 09:13:10;;;;;;;10.83;10.33;;;25.50;58.70;;;;;;3553319;40;20909;-53
2021/05/23 09:15:37;;;;;;;10.27;9.87;;;25.50;58.70;;;;;;3553571;40;20485;-50
2021/05/23 09:18:08;;;;;;;10.80;10.10;;;25.50;58.80;;;;;;3553491;40;20877;-50
2021/05/23 09:20:37;;;;;;;10.27;9.80;;;25.50;58.70;;;;;;3555030;40;20868;-51
2021/05/23 09:23:10;;;;;;;10.13;9.73;;;25.50;58.70;;;;;;3563328;40;20473;-50
2021/05/23 09:25:38;;;;;;;10.20;9.80;;;25.50;58.60;;;;;;3562976;40;20485;-51
2021/05/23 09:28:08;;;;;;;10.60;10.10;;;25.60;58.60;;;;;;3563707;40;20487;-51
2021/05/23 09:30:40;;;;;;;10.47;10.00;;;25.60;58.50;;;;;;3563316;40;20629;-50
2021/05/23 09:33:11;;;;;;;10.30;9.90;;;25.60;58.50;;;;;;3562730;40;20566;-50
2021/05/23 09:35:44;;;;;;;10.33;10.03;;;25.70;58.50;;;;;;3564249;40;20528;-50
2021/05/23 09:38:14;;;;;;;10.57;10.10;;;25.70;58.50;;;;;;3563585;40;20578;-51
2021/05/23 09:40:42;;;;;;;11.27;10.40;;;25.70;58.60;;;;;;3563066;40;20511;-50
2021/05/23 09:43:11;;;;;;;10.00;9.67;;;25.70;58.60;;;;;;3545537;40;20486;-49
2021/05/23 09:45:42;;;;;;;10.30;9.90;;;25.70;58.70;;;;;;3555069;40;20498;-50
2021/05/23 09:48:17;;;;;;;11.02;10.32;;;25.70;58.70;;;;;;3553733;40;20481;-50
2021/05/23 09:50:45;;;;;;;10.10;9.70;;;25.70;58.70;;;;;;3553706;40;20227;-51
2021/05/23 09:53:26;;;;;;;10.90;10.30;;;25.70;58.80;;;;;;3553369;40;20487;-50
2021/05/23 09:55:59;;;;;;;11.23;10.57;;;25.70;58.90;;;;;;3553665;40;20548;-50
2021/05/23 09:58:29;;;;;;;10.00;9.70;;;25.70;58.90;;;;;;3554692;40;20580;-53
2021/05/23 10:00:57;;;;;;;9.87;9.47;;;25.70;58.20;;;;;;3557445;40;20926;-49
2021/05/23 10:03:27;;;;;;;10.53;9.93;;;25.50;58.50;;;;;;3563542;40;21079;-55
2021/05/23 10:05:55;;;;;;;10.93;10.23;;;25.50;58.90;;;;;;3554835;40;20483;-50
2021/05/23 10:08:23;;;;;;;10.33;9.83;;;25.60;59.10;;;;;;3565268;40;20760;-50
2021/05/23 10:10:51;;;;;;;9.80;9.00;;;25.60;59.20;;;;;;3563840;40;20477;-49
2021/05/23 10:13:20;;;;;;;10.20;9.80;;;25.60;59.20;;;;;;3564561;40;20501;-50
2021/05/23 10:15:47;;;;;;;10.33;9.93;;;25.60;59.20;;;;;;3563509;40;20899;-51
2021/05/23 10:18:15;;;;;;;11.30;10.48;;;25.60;59.30;;;;;;3563219;40;20498;-50
2021/05/23 10:20:44;;;;;;;11.30;10.70;;;25.60;59.30;;;;;;3564726;40;20662;-49
2021/05/23 10:23:16;;;;;;;11.10;10.50;;;25.60;59.30;;;;;;3553759;40;20525;-51
2021/05/23 10:25:50;;;;;;;11.00;10.40;;;25.60;59.40;;;;;;3549261;40;20487;-50
2021/05/23 10:28:17;;;;;;;10.47;10.07;;;25.60;59.40;;;;;;3545428;40;20494;-51
2021/05/23 10:30:50;;;;;;;11.27;10.70;;;25.60;59.40;;;;;;3556295;40;20498;-49
2021/05/23 10:33:18;;;;;;;10.97;10.47;;;25.60;59.40;;;;;;3564190;40;20502;-50
2021/05/23 10:35:48;;;;;;;11.13;10.43;;;25.60;59.50;;;;;;3564737;40;20487;-50
2021/05/23 10:38:20;;;;;;;10.90;10.30;;;25.60;59.60;;;;;;3563481;40;20472;-49
2021/05/23 10:40:54;;;;;;;10.83;10.30;;;25.60;59.60;;;;;;3568828;40;20489;-50
2021/05/23 10:43:24;;;;;;;10.87;10.27;;;25.50;59.60;;;;;;3564739;40;20505;-50
2021/05/23 10:46:07;;;;;;;11.60;10.90;;;25.50;59.60;;;;;;3564462;40;20506;-49
2021/05/23 10:48:35;;;;;;;12.00;11.27;;;25.50;59.70;;;;;;3564755;40;20708;-50
2021/05/23 10:51:16;;;;;;;12.37;11.10;;;25.50;59.70;;;;;;3564042;40;20493;-49
2021/05/23 10:53:45;;;;;;;11.00;10.50;;;25.50;59.80;;;;;;3564310;40;20482;-50
2021/05/23 10:56:24;;;;;;;10.90;10.40;;;25.50;59.80;;;;;;3562945;40;20512;-49
2021/05/23 10:58:53;;;;;;;10.43;10.07;;;25.50;59.80;;;;;;3562347;40;20517;-50
2021/05/23 11:01:36;;;;;;;10.57;9.93;;;25.50;59.90;;;;;;3561991;40;20843;-52
2021/05/23 11:04:08;;;;;;;11.17;10.57;;;25.50;59.90;;;;;;3563600;40;20517;-50
2021/05/23 11:06:35;;;;;;;11.10;10.70;;;25.40;59.90;;;;;;3559838;40;20490;-49
2021/05/23 11:09:08;;;;;;;11.60;10.50;;;25.50;60.00;;;;;;3562916;40;20482;-50
2021/05/23 11:11:35;;;;;;;10.83;10.33;;;25.40;60.00;;;;;;3563396;40;20490;-49
2021/05/23 11:14:19;;;;;;;11.23;10.43;;;25.40;60.00;;;;;;3564388;40;20863;-50
2021/05/23 11:16:47;;;;;;;11.23;10.37;;;25.40;60.10;;;;;;3562505;40;20482;-49
2021/05/23 11:19:15;;;;;;;10.67;10.17;;;25.40;60.10;;;;;;3564158;40;20489;-49
2021/05/23 11:21:44;;;;;;;10.20;9.80;;;25.40;60.20;;;;;;3559031;40;20494;-49
2021/05/23 11:24:11;;;;;;;10.20;9.90;;;25.40;60.40;;;;;;3563259;40;20481;-49
2021/05/23 11:26:40;;;;;;;10.50;10.10;;;25.40;60.50;;;;;;3563217;40;20868;-49
2021/05/23 11:29:07;;;;;;;10.47;10.07;;;25.40;60.50;;;;;;3562689;40;20489;-50
2021/05/23 11:31:37;;;;;;;11.50;10.40;;;25.40;60.50;;;;;;3553032;40;20492;-50
2021/05/23 11:34:06;;;;;;;10.30;9.90;;;25.40;60.60;;;;;;3563141;40;20478;-50
2021/05/23 11:36:35;;;;;;;10.90;10.10;;;25.40;60.60;;;;;;3562223;40;20491;-50
2021/05/23 11:39:04;;;;;;;10.57;9.87;;;25.40;60.70;;;;;;3562501;40;20235;-50
2021/05/23 11:41:36;;;;;;;10.43;9.77;;;25.40;60.70;;;;;;3563285;40;20487;-49
2021/05/23 11:44:08;;;;;;;9.50;9.10;;;25.40;60.80;;;;;;3564145;40;20568;-49
2021/05/23 11:46:38;;;;;;;9.97;9.47;;;25.30;60.80;;;;;;3564265;40;21205;-49
2021/05/23 11:49:05;;;;;;;11.00;10.13;;;25.30;60.80;;;;;;3564638;40;20471;-49
2021/05/23 11:51:35;;;;;;;10.63;10.13;;;25.30;61.00;;;;;;3564047;40;20492;-49
2021/05/23 11:54:02;;;;;;;10.23;9.63;;;25.30;60.90;;;;;;3564686;40;20746;-51
2021/05/23 11:56:33;;;;;;;11.07;10.47;;;25.30;61.00;;;;;;3564721;40;20481;-52
2021/05/23 11:59:02;;;;;;;10.67;10.10;;;25.30;61.10;;;;;;3564049;40;20539;-49
2021/05/23 12:01:31;;;;;;;10.47;9.97;;;25.30;61.10;;;;;;3560265;40;20509;-49
2021/05/23 12:04:04;;;;;;;10.33;9.93;;;25.30;61.20;;;;;;3554172;40;20495;-51
2021/05/23 12:06:33;;;;;;;10.40;9.90;;;25.20;61.20;;;;;;3563975;40;20970;-48
2021/05/23 12:09:10;;;;;;;10.30;9.80;;;25.20;61.20;;;;;;3553728;40;20490;-48
2021/05/23 12:11:38;;;;;;;10.67;10.20;;;25.20;61.30;;;;;;3560408;40;20512;-52
2021/05/23 12:14:17;;;;;;;10.60;10.10;;;25.20;61.40;;;;;;3560236;40;20491;-48
2021/05/23 12:16:48;;;;;;;10.70;10.30;;;25.20;61.40;;;;;;3564101;40;21122;-49
2021/05/23 12:19:14;;;;;;;10.80;10.30;;;25.20;61.40;;;;;;3566391;40;20488;-49
2021/05/23 12:21:42;;;;;;;10.30;9.70;;;25.20;61.50;;;;;;3564788;40;20727;-52
2021/05/23 12:24:10;;;;;;;10.77;10.20;;;25.20;61.50;;;;;;3563128;40;20236;-49
2021/05/23 12:26:41;;;;;;;10.93;10.13;;;25.20;61.50;;;;;;3555666;40;20507;-49
2021/05/23 12:29:08;;;;;;;10.13;9.63;;;25.20;62.30;;;;;;3563460;40;20498;-50
2021/05/23 12:31:36;;;;;;;10.90;10.40;;;25.20;61.60;;;;;;3563369;40;20466;-49
2021/05/23 12:34:06;;;;;;;10.60;10.10;;;25.20;61.80;;;;;;3564214;40;20568;-50
2021/05/23 12:36:33;;;;;;;10.60;10.10;;;25.20;61.80;;;;;;3564754;40;20469;-49
2021/05/23 12:39:06;;;;;;;11.10;10.50;;;25.20;61.80;;;;;;3564426;40;20480;-49